sensor_id;sensor_type;location;lat;lon;timestamp;P1;durP1;ratioP1;P2;durP2;ratioP2
47772;SDS011;33534;51.028;13.716;2023-03-01T00:00:40;42.63;;;25.52;;
47772;SDS011;33534;51.028;13.716;2023-03-01T00:03:11;41.60;;;24.65;;
47772;SDS011;33534;51.028;13.716;2023-03-01T00:05:43;45.20;;;25.35;;
47772;SDS011;33534;51.028;13.716;2023-03-01T00:08:09;41.80;;;24.50;;
47772;SDS011;33534;51.028;13.716;2023-03-01T00:10:35;44.85;;;25.45;;
47772;SDS011;33534;51.028;13.716;2023-03-01T00:13:01;48.63;;;25.80;;
47772;SDS011;33534;51.028;13.716;2023-03-01T00:15:27;50.35;;;27.08;;
47772;SDS011;33534;51.028;13.716;2023-03-01T00:17:53;43.58;;;25.20;;
47772;SDS011;33534;51.028;13.716;2023-03-01T00:20:19;44.80;;;24.83;;
47772;SDS011;33534;51.028;13.716;2023-03-01T00:22:45;46.92;;;25.85;;
47772;SDS011;33534;51.028;13.716;2023-03-01T00:25:11;47.65;;;26.45;;
47772;SDS011;33534;51.028;13.716;2023-03-01T00:27:37;49.03;;;26.05;;
47772;SDS011;33534;51.028;13.716;2023-03-01T00:30:03;46.38;;;25.83;;
47772;SDS011;33534;51.028;13.716;2023-03-01T00:32:30;41.97;;;24.60;;
47772;SDS011;33534;51.028;13.716;2023-03-01T00:34:56;41.33;;;24.60;;
47772;SDS011;33534;51.028;13.716;2023-03-01T00:37:22;43.22;;;24.73;;
47772;SDS011;33534;51.028;13.716;2023-03-01T00:39:48;49.85;;;26.30;;
47772;SDS011;33534;51.028;13.716;2023-03-01T00:42:14;50.45;;;27.80;;
47772;SDS011;33534;51.028;13.716;2023-03-01T00:44:40;44.33;;;25.30;;
47772;SDS011;33534;51.028;13.716;2023-03-01T00:47:06;49.22;;;24.77;;
47772;SDS011;33534;51.028;13.716;2023-03-01T00:49:33;45.78;;;24.77;;
47772;SDS011;33534;51.028;13.716;2023-03-01T00:51:58;46.20;;;25.27;;
47772;SDS011;33534;51.028;13.716;2023-03-01T00:54:24;49.33;;;25.58;;
47772;SDS011;33534;51.028;13.716;2023-03-01T00:56:50;43.40;;;23.85;;
47772;SDS011;33534;51.028;13.716;2023-03-01T00:59:16;43.10;;;24.38;;
47772;SDS011;33534;51.028;13.716;2023-03-01T01:01:42;45.15;;;25.58;;
47772;SDS011;33534;51.028;13.716;2023-03-01T01:04:10;46.63;;;24.85;;
47772;SDS011;33534;51.028;13.716;2023-03-01T01:06:39;42.85;;;24.00;;
47772;SDS011;33534;51.028;13.716;2023-03-01T01:09:07;49.35;;;25.92;;
47772;SDS011;33534;51.028;13.716;2023-03-01T01:11:34;44.17;;;24.35;;
47772;SDS011;33534;51.028;13.716;2023-03-01T01:14:01;45.92;;;25.83;;
47772;SDS011;33534;51.028;13.716;2023-03-01T01:16:27;50.58;;;25.85;;
47772;SDS011;33534;51.028;13.716;2023-03-01T01:18:54;47.97;;;26.45;;
47772;SDS011;33534;51.028;13.716;2023-03-01T01:21:21;44.53;;;24.90;;
47772;SDS011;33534;51.028;13.716;2023-03-01T01:23:48;44.75;;;25.00;;
47772;SDS011;33534;51.028;13.716;2023-03-01T01:26:24;47.10;;;26.42;;
47772;SDS011;33534;51.028;13.716;2023-03-01T01:28:50;49.28;;;25.83;;
47772;SDS011;33534;51.028;13.716;2023-03-01T01:31:17;45.38;;;26.08;;
47772;SDS011;33534;51.028;13.716;2023-03-01T01:33:43;46.92;;;26.17;;
47772;SDS011;33534;51.028;13.716;2023-03-01T01:36:09;49.47;;;25.48;;
47772;SDS011;33534;51.028;13.716;2023-03-01T01:38:36;44.42;;;24.85;;
47772;SDS011;33534;51.028;13.716;2023-03-01T01:41:03;49.47;;;25.13;;
47772;SDS011;33534;51.028;13.716;2023-03-01T01:43:36;45.97;;;26.02;;
47772;SDS011;33534;51.028;13.716;2023-03-01T01:48:41;45.80;;;25.77;;
47772;SDS011;33534;51.028;13.716;2023-03-01T01:51:11;48.65;;;25.73;;
47772;SDS011;33534;51.028;13.716;2023-03-01T01:53:38;38.60;;;20.00;;
47772;SDS011;33534;51.028;13.716;2023-03-01T01:56:06;49.72;;;25.70;;
47772;SDS011;33534;51.028;13.716;2023-03-01T01:58:33;47.05;;;25.65;;
47772;SDS011;33534;51.028;13.716;2023-03-01T02:00:59;46.60;;;24.60;;
47772;SDS011;33534;51.028;13.716;2023-03-01T02:03:27;52.60;;;27.63;;
47772;SDS011;33534;51.028;13.716;2023-03-01T02:06:04;50.92;;;26.55;;
47772;SDS011;33534;51.028;13.716;2023-03-01T02:08:33;43.67;;;25.52;;
47772;SDS011;33534;51.028;13.716;2023-03-01T02:11:01;48.60;;;25.27;;
47772;SDS011;33534;51.028;13.716;2023-03-01T02:13:29;57.67;;;26.48;;
47772;SDS011;33534;51.028;13.716;2023-03-01T02:15:55;48.90;;;25.55;;
47772;SDS011;33534;51.028;13.716;2023-03-01T02:18:22;46.92;;;25.40;;
47772;SDS011;33534;51.028;13.716;2023-03-01T02:23:18;50.65;;;25.30;;
47772;SDS011;33534;51.028;13.716;2023-03-01T02:30:43;50.55;;;26.17;;
47772;SDS011;33534;51.028;13.716;2023-03-01T02:33:29;46.42;;;25.52;;
47772;SDS011;33534;51.028;13.716;2023-03-01T02:36:01;46.78;;;25.75;;
47772;SDS011;33534;51.028;13.716;2023-03-01T02:38:27;48.55;;;27.50;;
47772;SDS011;33534;51.028;13.716;2023-03-01T02:40:54;47.72;;;26.25;;
47772;SDS011;33534;51.028;13.716;2023-03-01T02:43:20;50.20;;;25.85;;
47772;SDS011;33534;51.028;13.716;2023-03-01T02:45:51;47.22;;;24.92;;
47772;SDS011;33534;51.028;13.716;2023-03-01T02:48:18;47.70;;;25.73;;
47772;SDS011;33534;51.028;13.716;2023-03-01T02:50:50;43.95;;;25.58;;
47772;SDS011;33534;51.028;13.716;2023-03-01T02:53:29;55.15;;;26.08;;
47772;SDS011;33534;51.028;13.716;2023-03-01T02:55:58;52.72;;;26.42;;
47772;SDS011;33534;51.028;13.716;2023-03-01T02:58:24;52.10;;;25.98;;
47772;SDS011;33534;51.028;13.716;2023-03-01T03:00:50;49.63;;;27.30;;
47772;SDS011;33534;51.028;13.716;2023-03-01T03:03:17;51.55;;;28.23;;
47772;SDS011;33534;51.028;13.716;2023-03-01T03:05:44;51.88;;;27.05;;
47772;SDS011;33534;51.028;13.716;2023-03-01T03:08:10;48.88;;;25.33;;
47772;SDS011;33534;51.028;13.716;2023-03-01T03:10:39;43.42;;;23.58;;
47772;SDS011;33534;51.028;13.716;2023-03-01T03:13:06;46.83;;;25.88;;
47772;SDS011;33534;51.028;13.716;2023-03-01T03:15:33;46.95;;;24.38;;
47772;SDS011;33534;51.028;13.716;2023-03-01T03:18:04;44.58;;;24.10;;
47772;SDS011;33534;51.028;13.716;2023-03-01T03:20:30;47.10;;;25.08;;
47772;SDS011;33534;51.028;13.716;2023-03-01T03:22:56;45.15;;;23.95;;
47772;SDS011;33534;51.028;13.716;2023-03-01T03:25:26;45.22;;;24.38;;
47772;SDS011;33534;51.028;13.716;2023-03-01T03:27:53;48.78;;;25.05;;
47772;SDS011;33534;51.028;13.716;2023-03-01T03:30:27;43.42;;;23.23;;
47772;SDS011;33534;51.028;13.716;2023-03-01T03:32:54;44.83;;;25.67;;
47772;SDS011;33534;51.028;13.716;2023-03-01T03:35:25;48.95;;;26.17;;
47772;SDS011;33534;51.028;13.716;2023-03-01T03:37:51;45.10;;;24.92;;
47772;SDS011;33534;51.028;13.716;2023-03-01T03:40:27;45.78;;;24.27;;
47772;SDS011;33534;51.028;13.716;2023-03-01T03:42:53;49.50;;;25.80;;
47772;SDS011;33534;51.028;13.716;2023-03-01T03:45:20;50.65;;;27.13;;
47772;SDS011;33534;51.028;13.716;2023-03-01T03:47:46;45.00;;;24.83;;
47772;SDS011;33534;51.028;13.716;2023-03-01T03:50:12;49.17;;;24.80;;
47772;SDS011;33534;51.028;13.716;2023-03-01T03:52:39;49.35;;;25.88;;
47772;SDS011;33534;51.028;13.716;2023-03-01T03:55:06;51.95;;;26.95;;
47772;SDS011;33534;51.028;13.716;2023-03-01T03:57:39;52.20;;;27.48;;
47772;SDS011;33534;51.028;13.716;2023-03-01T04:00:05;50.63;;;27.17;;
47772;SDS011;33534;51.028;13.716;2023-03-01T04:02:38;54.33;;;25.23;;
47772;SDS011;33534;51.028;13.716;2023-03-01T04:05:04;58.92;;;27.65;;
47772;SDS011;33534;51.028;13.716;2023-03-01T04:07:30;62.55;;;27.67;;
47772;SDS011;33534;51.028;13.716;2023-03-01T04:09:56;60.38;;;27.45;;
47772;SDS011;33534;51.028;13.716;2023-03-01T04:12:22;48.78;;;25.38;;
47772;SDS011;33534;51.028;13.716;2023-03-01T04:14:48;50.55;;;26.83;;
47772;SDS011;33534;51.028;13.716;2023-03-01T04:17:14;56.03;;;27.25;;
47772;SDS011;33534;51.028;13.716;2023-03-01T04:19:40;55.85;;;28.73;;
47772;SDS011;33534;51.028;13.716;2023-03-01T04:22:08;56.58;;;29.42;;
47772;SDS011;33534;51.028;13.716;2023-03-01T04:24:36;58.53;;;28.33;;
47772;SDS011;33534;51.028;13.716;2023-03-01T04:27:02;56.78;;;26.10;;
47772;SDS011;33534;51.028;13.716;2023-03-01T04:29:28;52.03;;;27.58;;
47772;SDS011;33534;51.028;13.716;2023-03-01T04:31:54;50.20;;;25.65;;
47772;SDS011;33534;51.028;13.716;2023-03-01T04:34:20;55.67;;;27.60;;
47772;SDS011;33534;51.028;13.716;2023-03-01T04:36:46;56.20;;;26.67;;
47772;SDS011;33534;51.028;13.716;2023-03-01T04:39:12;51.40;;;26.05;;
47772;SDS011;33534;51.028;13.716;2023-03-01T04:41:38;46.63;;;25.98;;
47772;SDS011;33534;51.028;13.716;2023-03-01T04:44:05;49.33;;;25.17;;
47772;SDS011;33534;51.028;13.716;2023-03-01T04:46:31;48.20;;;25.67;;
47772;SDS011;33534;51.028;13.716;2023-03-01T04:48:57;54.80;;;28.25;;
47772;SDS011;33534;51.028;13.716;2023-03-01T04:51:23;55.83;;;27.30;;
47772;SDS011;33534;51.028;13.716;2023-03-01T04:53:49;53.28;;;27.45;;
47772;SDS011;33534;51.028;13.716;2023-03-01T04:56:15;48.10;;;27.33;;
47772;SDS011;33534;51.028;13.716;2023-03-01T04:58:43;55.20;;;27.80;;
47772;SDS011;33534;51.028;13.716;2023-03-01T05:01:10;70.97;;;32.40;;
47772;SDS011;33534;51.028;13.716;2023-03-01T05:03:40;59.88;;;28.90;;
47772;SDS011;33534;51.028;13.716;2023-03-01T05:06:06;60.63;;;29.80;;
47772;SDS011;33534;51.028;13.716;2023-03-01T05:08:32;58.83;;;29.90;;
47772;SDS011;33534;51.028;13.716;2023-03-01T05:10:59;62.65;;;30.08;;
47772;SDS011;33534;51.028;13.716;2023-03-01T05:13:25;57.08;;;30.30;;
47772;SDS011;33534;51.028;13.716;2023-03-01T05:15:55;57.22;;;29.02;;
47772;SDS011;33534;51.028;13.716;2023-03-01T05:18:21;53.30;;;27.35;;
47772;SDS011;33534;51.028;13.716;2023-03-01T05:20:51;55.70;;;27.90;;
47772;SDS011;33534;51.028;13.716;2023-03-01T05:23:17;58.78;;;28.15;;
47772;SDS011;33534;51.028;13.716;2023-03-01T05:25:43;55.45;;;27.52;;
47772;SDS011;33534;51.028;13.716;2023-03-01T05:28:13;54.65;;;28.70;;
47772;SDS011;33534;51.028;13.716;2023-03-01T05:30:39;55.42;;;29.67;;
47772;SDS011;33534;51.028;13.716;2023-03-01T05:33:05;54.58;;;28.60;;
47772;SDS011;33534;51.028;13.716;2023-03-01T05:35:38;56.72;;;26.83;;
47772;SDS011;33534;51.028;13.716;2023-03-01T05:38:04;51.63;;;26.92;;
47772;SDS011;33534;51.028;13.716;2023-03-01T05:40:30;52.30;;;27.48;;
47772;SDS011;33534;51.028;13.716;2023-03-01T05:42:56;57.05;;;26.30;;
47772;SDS011;33534;51.028;13.716;2023-03-01T05:45:23;55.90;;;27.42;;
47772;SDS011;33534;51.028;13.716;2023-03-01T05:47:49;57.50;;;28.38;;
47772;SDS011;33534;51.028;13.716;2023-03-01T05:50:17;55.08;;;29.05;;
47772;SDS011;33534;51.028;13.716;2023-03-01T05:52:47;54.80;;;28.52;;
47772;SDS011;33534;51.028;13.716;2023-03-01T05:55:14;58.80;;;28.40;;
47772;SDS011;33534;51.028;13.716;2023-03-01T05:57:40;62.47;;;28.88;;
47772;SDS011;33534;51.028;13.716;2023-03-01T06:00:06;57.83;;;28.63;;
47772;SDS011;33534;51.028;13.716;2023-03-01T06:02:33;52.50;;;27.23;;
47772;SDS011;33534;51.028;13.716;2023-03-01T06:04:58;54.35;;;27.17;;
47772;SDS011;33534;51.028;13.716;2023-03-01T06:07:25;52.22;;;26.90;;
47772;SDS011;33534;51.028;13.716;2023-03-01T06:09:51;53.05;;;26.95;;
47772;SDS011;33534;51.028;13.716;2023-03-01T06:12:18;65.60;;;29.23;;
47772;SDS011;33534;51.028;13.716;2023-03-01T06:14:45;72.75;;;32.13;;
47772;SDS011;33534;51.028;13.716;2023-03-01T06:17:12;59.65;;;29.17;;
47772;SDS011;33534;51.028;13.716;2023-03-01T06:19:38;54.42;;;28.60;;
47772;SDS011;33534;51.028;13.716;2023-03-01T06:22:04;60.90;;;29.20;;
47772;SDS011;33534;51.028;13.716;2023-03-01T06:24:30;44.17;;;24.58;;
47772;SDS011;33534;51.028;13.716;2023-03-01T06:26:56;42.00;;;21.63;;
47772;SDS011;33534;51.028;13.716;2023-03-01T06:29:22;36.28;;;20.48;;
47772;SDS011;33534;51.028;13.716;2023-03-01T06:31:48;36.13;;;22.15;;
47772;SDS011;33534;51.028;13.716;2023-03-01T06:34:14;36.45;;;20.83;;
47772;SDS011;33534;51.028;13.716;2023-03-01T06:36:40;31.92;;;20.33;;
47772;SDS011;33534;51.028;13.716;2023-03-01T06:39:06;38.28;;;21.45;;
47772;SDS011;33534;51.028;13.716;2023-03-01T06:41:32;32.00;;;20.25;;
47772;SDS011;33534;51.028;13.716;2023-03-01T06:43:59;31.45;;;19.08;;
47772;SDS011;33534;51.028;13.716;2023-03-01T06:46:25;32.28;;;19.98;;
47772;SDS011;33534;51.028;13.716;2023-03-01T06:48:51;29.42;;;18.85;;
47772;SDS011;33534;51.028;13.716;2023-03-01T06:51:17;27.38;;;18.00;;
47772;SDS011;33534;51.028;13.716;2023-03-01T06:53:43;26.85;;;18.35;;
47772;SDS011;33534;51.028;13.716;2023-03-01T06:56:09;26.70;;;17.73;;
47772;SDS011;33534;51.028;13.716;2023-03-01T06:58:35;28.90;;;17.90;;
47772;SDS011;33534;51.028;13.716;2023-03-01T07:01:05;27.60;;;18.25;;
47772;SDS011;33534;51.028;13.716;2023-03-01T07:03:31;28.42;;;18.10;;
47772;SDS011;33534;51.028;13.716;2023-03-01T07:05:57;26.00;;;17.88;;
47772;SDS011;33534;51.028;13.716;2023-03-01T07:08:23;29.23;;;18.55;;
47772;SDS011;33534;51.028;13.716;2023-03-01T07:10:54;31.00;;;20.50;;
47772;SDS011;33534;51.028;13.716;2023-03-01T07:13:20;27.67;;;18.80;;
47772;SDS011;33534;51.028;13.716;2023-03-01T07:15:46;26.95;;;18.45;;
47772;SDS011;33534;51.028;13.716;2023-03-01T07:18:12;27.65;;;19.83;;
47772;SDS011;33534;51.028;13.716;2023-03-01T07:20:38;29.23;;;20.40;;
47772;SDS011;33534;51.028;13.716;2023-03-01T07:23:05;30.80;;;20.08;;
47772;SDS011;33534;51.028;13.716;2023-03-01T07:25:31;27.65;;;18.70;;
47772;SDS011;33534;51.028;13.716;2023-03-01T07:27:57;28.23;;;20.35;;
47772;SDS011;33534;51.028;13.716;2023-03-01T07:30:24;27.10;;;19.50;;
47772;SDS011;33534;51.028;13.716;2023-03-01T07:32:53;30.05;;;19.95;;
47772;SDS011;33534;51.028;13.716;2023-03-01T07:35:20;26.63;;;19.20;;
47772;SDS011;33534;51.028;13.716;2023-03-01T07:37:46;32.35;;;21.90;;
47772;SDS011;33534;51.028;13.716;2023-03-01T07:40:12;29.52;;;20.67;;
47772;SDS011;33534;51.028;13.716;2023-03-01T07:42:38;34.45;;;21.35;;
47772;SDS011;33534;51.028;13.716;2023-03-01T07:45:04;33.15;;;21.90;;
47772;SDS011;33534;51.028;13.716;2023-03-01T07:47:31;34.50;;;20.77;;
47772;SDS011;33534;51.028;13.716;2023-03-01T07:49:57;32.70;;;21.50;;
47772;SDS011;33534;51.028;13.716;2023-03-01T07:52:23;30.90;;;20.67;;
47772;SDS011;33534;51.028;13.716;2023-03-01T07:54:49;33.80;;;22.75;;
47772;SDS011;33534;51.028;13.716;2023-03-01T07:57:15;33.08;;;22.45;;
47772;SDS011;33534;51.028;13.716;2023-03-01T07:59:41;36.50;;;24.40;;
47772;SDS011;33534;51.028;13.716;2023-03-01T08:02:08;33.60;;;23.58;;
47772;SDS011;33534;51.028;13.716;2023-03-01T08:04:34;32.20;;;22.00;;
47772;SDS011;33534;51.028;13.716;2023-03-01T08:07:00;39.22;;;23.10;;
47772;SDS011;33534;51.028;13.716;2023-03-01T08:09:26;37.58;;;23.13;;
47772;SDS011;33534;51.028;13.716;2023-03-01T08:11:52;40.35;;;23.77;;
47772;SDS011;33534;51.028;13.716;2023-03-01T08:14:19;34.50;;;24.63;;
47772;SDS011;33534;51.028;13.716;2023-03-01T08:16:45;35.25;;;24.75;;
47772;SDS011;33534;51.028;13.716;2023-03-01T08:19:14;38.00;;;24.00;;
47772;SDS011;33534;51.028;13.716;2023-03-01T08:21:40;41.15;;;25.98;;
47772;SDS011;33534;51.028;13.716;2023-03-01T08:24:06;45.10;;;26.02;;
47772;SDS011;33534;51.028;13.716;2023-03-01T08:26:33;42.58;;;26.20;;
47772;SDS011;33534;51.028;13.716;2023-03-01T08:28:59;47.03;;;27.38;;
47772;SDS011;33534;51.028;13.716;2023-03-01T08:31:27;41.15;;;24.05;;
47772;SDS011;33534;51.028;13.716;2023-03-01T08:33:55;41.70;;;25.63;;
47772;SDS011;33534;51.028;13.716;2023-03-01T08:36:25;42.25;;;26.38;;
47772;SDS011;33534;51.028;13.716;2023-03-01T08:38:51;40.83;;;24.92;;
47772;SDS011;33534;51.028;13.716;2023-03-01T08:41:17;43.85;;;26.80;;
47772;SDS011;33534;51.028;13.716;2023-03-01T08:43:44;44.78;;;25.75;;
47772;SDS011;33534;51.028;13.716;2023-03-01T08:46:10;43.00;;;24.42;;
47772;SDS011;33534;51.028;13.716;2023-03-01T08:48:36;44.33;;;26.08;;
47772;SDS011;33534;51.028;13.716;2023-03-01T08:51:15;47.72;;;25.17;;
47772;SDS011;33534;51.028;13.716;2023-03-01T08:53:42;47.22;;;24.40;;
47772;SDS011;33534;51.028;13.716;2023-03-01T08:56:08;38.25;;;24.35;;
47772;SDS011;33534;51.028;13.716;2023-03-01T08:58:34;39.33;;;23.05;;
47772;SDS011;33534;51.028;13.716;2023-03-01T09:01:01;40.65;;;23.77;;
47772;SDS011;33534;51.028;13.716;2023-03-01T09:03:32;41.10;;;25.95;;
47772;SDS011;33534;51.028;13.716;2023-03-01T09:06:01;38.45;;;24.17;;
47772;SDS011;33534;51.028;13.716;2023-03-01T09:08:27;38.63;;;23.63;;
47772;SDS011;33534;51.028;13.716;2023-03-01T09:10:53;38.95;;;22.73;;
47772;SDS011;33534;51.028;13.716;2023-03-01T09:13:19;42.67;;;23.52;;
47772;SDS011;33534;51.028;13.716;2023-03-01T09:15:45;34.10;;;22.05;;
47772;SDS011;33534;51.028;13.716;2023-03-01T09:18:11;46.90;;;22.92;;
47772;SDS011;33534;51.028;13.716;2023-03-01T09:20:37;36.97;;;23.23;;
47772;SDS011;33534;51.028;13.716;2023-03-01T09:23:03;35.83;;;24.02;;
47772;SDS011;33534;51.028;13.716;2023-03-01T09:25:29;36.35;;;22.08;;
47772;SDS011;33534;51.028;13.716;2023-03-01T09:27:55;36.80;;;22.98;;
47772;SDS011;33534;51.028;13.716;2023-03-01T09:30:21;35.72;;;23.17;;
47772;SDS011;33534;51.028;13.716;2023-03-01T09:32:49;47.00;;;22.33;;
47772;SDS011;33534;51.028;13.716;2023-03-01T09:35:15;39.25;;;23.80;;
47772;SDS011;33534;51.028;13.716;2023-03-01T09:37:41;37.33;;;23.48;;
47772;SDS011;33534;51.028;13.716;2023-03-01T09:40:14;36.50;;;22.67;;
47772;SDS011;33534;51.028;13.716;2023-03-01T09:42:45;29.50;;;17.88;;
47772;SDS011;33534;51.028;13.716;2023-03-01T09:45:15;38.47;;;21.42;;
47772;SDS011;33534;51.028;13.716;2023-03-01T09:47:45;34.53;;;21.25;;
47772;SDS011;33534;51.028;13.716;2023-03-01T09:50:16;34.65;;;20.85;;
47772;SDS011;33534;51.028;13.716;2023-03-01T09:55:13;36.08;;;21.45;;
47772;SDS011;33534;51.028;13.716;2023-03-01T10:02:48;33.55;;;21.75;;
47772;SDS011;33534;51.028;13.716;2023-03-01T10:10:29;38.50;;;20.42;;
47772;SDS011;33534;51.028;13.716;2023-03-01T10:12:58;37.25;;;21.83;;
47772;SDS011;33534;51.028;13.716;2023-03-01T10:15:31;35.47;;;21.02;;
47772;SDS011;33534;51.028;13.716;2023-03-01T10:18:00;39.63;;;23.20;;
47772;SDS011;33534;51.028;13.716;2023-03-01T10:23:04;34.80;;;21.73;;
47772;SDS011;33534;51.028;13.716;2023-03-01T10:25:40;44.05;;;24.60;;
47772;SDS011;33534;51.028;13.716;2023-03-01T10:28:16;34.08;;;21.40;;
47772;SDS011;33534;51.028;13.716;2023-03-01T10:30:43;39.38;;;22.88;;
47772;SDS011;33534;51.028;13.716;2023-03-01T10:33:20;39.05;;;25.02;;
47772;SDS011;33534;51.028;13.716;2023-03-01T10:35:48;43.08;;;23.73;;
47772;SDS011;33534;51.028;13.716;2023-03-01T10:38:14;38.17;;;23.13;;
47772;SDS011;33534;51.028;13.716;2023-03-01T10:40:54;37.50;;;22.33;;
47772;SDS011;33534;51.028;13.716;2023-03-01T10:43:22;37.60;;;22.95;;
47772;SDS011;33534;51.028;13.716;2023-03-01T10:45:49;42.85;;;23.92;;
47772;SDS011;33534;51.028;13.716;2023-03-01T10:48:22;38.78;;;22.15;;
47772;SDS011;33534;51.028;13.716;2023-03-01T10:51:03;39.70;;;23.08;;
47772;SDS011;33534;51.028;13.716;2023-03-01T10:53:34;40.00;;;23.92;;
47772;SDS011;33534;51.028;13.716;2023-03-01T10:58:27;35.92;;;21.98;;
47772;SDS011;33534;51.028;13.716;2023-03-01T11:00:55;34.92;;;22.42;;
47772;SDS011;33534;51.028;13.716;2023-03-01T11:03:23;39.50;;;22.92;;
47772;SDS011;33534;51.028;13.716;2023-03-01T11:05:51;39.95;;;21.83;;
47772;SDS011;33534;51.028;13.716;2023-03-01T11:08:28;35.20;;;21.35;;
47772;SDS011;33534;51.028;13.716;2023-03-01T11:11:16;34.45;;;21.17;;
47772;SDS011;33534;51.028;13.716;2023-03-01T11:13:54;37.03;;;22.30;;
47772;SDS011;33534;51.028;13.716;2023-03-01T11:16:25;33.60;;;20.80;;
47772;SDS011;33534;51.028;13.716;2023-03-01T11:18:59;37.55;;;21.67;;
47772;SDS011;33534;51.028;13.716;2023-03-01T11:21:26;39.60;;;21.20;;
47772;SDS011;33534;51.028;13.716;2023-03-01T11:23:54;35.90;;;20.27;;
47772;SDS011;33534;51.028;13.716;2023-03-01T11:26:20;34.40;;;22.13;;
47772;SDS011;33534;51.028;13.716;2023-03-01T11:28:49;35.00;;;21.65;;
47772;SDS011;33534;51.028;13.716;2023-03-01T11:31:16;40.78;;;22.33;;
47772;SDS011;33534;51.028;13.716;2023-03-01T11:34:00;29.65;;;19.08;;
47772;SDS011;33534;51.028;13.716;2023-03-01T11:36:30;32.63;;;18.75;;
47772;SDS011;33534;51.028;13.716;2023-03-01T11:39:01;28.83;;;17.13;;
47772;SDS011;33534;51.028;13.716;2023-03-01T11:41:31;31.97;;;18.80;;
47772;SDS011;33534;51.028;13.716;2023-03-01T11:43:58;29.55;;;18.40;;
47772;SDS011;33534;51.028;13.716;2023-03-01T11:56:52;26.42;;;16.17;;
47772;SDS011;33534;51.028;13.716;2023-03-01T11:59:31;25.80;;;16.60;;
47772;SDS011;33534;51.028;13.716;2023-03-01T12:25:39;19.80;;;13.30;;
47772;SDS011;33534;51.028;13.716;2023-03-01T12:33:30;19.90;;;12.93;;
47772;SDS011;33534;51.028;13.716;2023-03-01T12:38:42;24.38;;;14.07;;
47772;SDS011;33534;51.028;13.716;2023-03-01T12:46:57;22.25;;;16.17;;
47772;SDS011;33534;51.028;13.716;2023-03-01T12:49:29;24.48;;;16.63;;
47772;SDS011;33534;51.028;13.716;2023-03-01T12:52:02;28.05;;;16.85;;
47772;SDS011;33534;51.028;13.716;2023-03-01T12:54:30;32.10;;;16.05;;
47772;SDS011;33534;51.028;13.716;2023-03-01T13:02:27;31.10;;;18.20;;
47772;SDS011;33534;51.028;13.716;2023-03-01T13:05:14;28.80;;;17.77;;
47772;SDS011;33534;51.028;13.716;2023-03-01T13:13:01;31.20;;;18.95;;
47772;SDS011;33534;51.028;13.716;2023-03-01T13:15:28;28.58;;;17.35;;
47772;SDS011;33534;51.028;13.716;2023-03-01T13:20:31;30.55;;;17.55;;
47772;SDS011;33534;51.028;13.716;2023-03-01T13:31:02;28.75;;;18.05;;
47772;SDS011;33534;51.028;13.716;2023-03-01T13:35:55;28.10;;;17.75;;
47772;SDS011;33534;51.028;13.716;2023-03-01T13:49:25;32.15;;;17.35;;
47772;SDS011;33534;51.028;13.716;2023-03-01T13:51:52;32.53;;;17.08;;
47772;SDS011;33534;51.028;13.716;2023-03-01T13:54:23;28.88;;;17.17;;
47772;SDS011;33534;51.028;13.716;2023-03-01T13:56:50;28.88;;;17.85;;
47772;SDS011;33534;51.028;13.716;2023-03-01T13:59:20;28.83;;;17.48;;
47772;SDS011;33534;51.028;13.716;2023-03-01T14:01:53;28.53;;;16.03;;
47772;SDS011;33534;51.028;13.716;2023-03-01T14:04:24;28.75;;;16.38;;
47772;SDS011;33534;51.028;13.716;2023-03-01T14:06:52;28.40;;;17.85;;
47772;SDS011;33534;51.028;13.716;2023-03-01T14:09:22;30.17;;;18.42;;
47772;SDS011;33534;51.028;13.716;2023-03-01T14:17:06;28.67;;;17.25;;
47772;SDS011;33534;51.028;13.716;2023-03-01T14:19:34;30.08;;;18.33;;
47772;SDS011;33534;51.028;13.716;2023-03-01T14:24:51;32.72;;;19.92;;
47772;SDS011;33534;51.028;13.716;2023-03-01T14:27:18;27.77;;;17.48;;
47772;SDS011;33534;51.028;13.716;2023-03-01T14:29:44;32.85;;;17.85;;
47772;SDS011;33534;51.028;13.716;2023-03-01T14:32:20;27.17;;;16.30;;
47772;SDS011;33534;51.028;13.716;2023-03-01T14:34:48;33.40;;;18.80;;
47772;SDS011;33534;51.028;13.716;2023-03-01T14:37:28;34.33;;;20.25;;
47772;SDS011;33534;51.028;13.716;2023-03-01T14:39:58;28.60;;;17.63;;
47772;SDS011;33534;51.028;13.716;2023-03-01T14:42:25;29.42;;;18.58;;
47772;SDS011;33534;51.028;13.716;2023-03-01T14:44:52;36.85;;;18.48;;
47772;SDS011;33534;51.028;13.716;2023-03-01T14:47:23;29.15;;;18.00;;
47772;SDS011;33534;51.028;13.716;2023-03-01T14:49:54;29.25;;;16.45;;
47772;SDS011;33534;51.028;13.716;2023-03-01T14:52:22;26.08;;;16.38;;
47772;SDS011;33534;51.028;13.716;2023-03-01T14:54:50;26.13;;;16.30;;
47772;SDS011;33534;51.028;13.716;2023-03-01T14:57:21;33.50;;;17.88;;
47772;SDS011;33534;51.028;13.716;2023-03-01T14:59:47;30.27;;;18.27;;
47772;SDS011;33534;51.028;13.716;2023-03-01T15:02:16;31.15;;;17.67;;
47772;SDS011;33534;51.028;13.716;2023-03-01T15:04:48;29.83;;;17.38;;
47772;SDS011;33534;51.028;13.716;2023-03-01T15:07:15;29.15;;;16.75;;
47772;SDS011;33534;51.028;13.716;2023-03-01T15:09:42;30.23;;;17.90;;
47772;SDS011;33534;51.028;13.716;2023-03-01T15:14:53;31.80;;;17.77;;
47772;SDS011;33534;51.028;13.716;2023-03-01T15:17:31;29.83;;;17.63;;
47772;SDS011;33534;51.028;13.716;2023-03-01T15:19:59;31.58;;;17.90;;
47772;SDS011;33534;51.028;13.716;2023-03-01T15:22:26;28.27;;;16.77;;
47772;SDS011;33534;51.028;13.716;2023-03-01T15:24:52;27.13;;;16.25;;
47772;SDS011;33534;51.028;13.716;2023-03-01T15:27:19;26.92;;;16.85;;
47772;SDS011;33534;51.028;13.716;2023-03-01T15:29:53;28.40;;;16.50;;
47772;SDS011;33534;51.028;13.716;2023-03-01T15:32:30;27.75;;;16.02;;
47772;SDS011;33534;51.028;13.716;2023-03-01T15:35:00;25.83;;;16.55;;
47772;SDS011;33534;51.028;13.716;2023-03-01T15:37:40;27.05;;;16.10;;
47772;SDS011;33534;51.028;13.716;2023-03-01T15:42:45;25.80;;;15.57;;
47772;SDS011;33534;51.028;13.716;2023-03-01T15:47:49;25.17;;;15.52;;
47772;SDS011;33534;51.028;13.716;2023-03-01T15:50:17;25.33;;;15.47;;
47772;SDS011;33534;51.028;13.716;2023-03-01T15:52:45;21.92;;;14.13;;
47772;SDS011;33534;51.028;13.716;2023-03-01T15:57:43;22.67;;;14.02;;
47772;SDS011;33534;51.028;13.716;2023-03-01T16:00:10;26.20;;;14.68;;
47772;SDS011;33534;51.028;13.716;2023-03-01T16:02:44;24.55;;;14.50;;
47772;SDS011;33534;51.028;13.716;2023-03-01T16:05:17;24.73;;;13.70;;
47772;SDS011;33534;51.028;13.716;2023-03-01T16:10:33;25.77;;;14.38;;
47772;SDS011;33534;51.028;13.716;2023-03-01T16:12:59;23.42;;;14.32;;
47772;SDS011;33534;51.028;13.716;2023-03-01T16:15:26;24.75;;;14.13;;
47772;SDS011;33534;51.028;13.716;2023-03-01T16:17:53;22.45;;;13.65;;
47772;SDS011;33534;51.028;13.716;2023-03-01T16:20:19;23.98;;;14.23;;
47772;SDS011;33534;51.028;13.716;2023-03-01T16:22:45;27.25;;;14.63;;
47772;SDS011;33534;51.028;13.716;2023-03-01T16:25:13;22.80;;;14.43;;